Time,TemperatureF,DewpointF,PressureIn,WindDirection,WindDirectionDegrees,WindSpeedMPH,WindSpeedGustMPH,Humidity,HourlyPrecipIn,Conditions,Clouds,dailyrainin,SoftwareType,DateUTC
2013-09-21 00:02:00,48.4,23.3,24.54,WSW,239,3.1,4.0,37,0.00,,---,0.00,VWS V14.01,2013-09-21 06:02:00,
2013-09-21 00:07:00,48.2,23.2,24.54,WSW,247,3.6,4.9,37,0.00,,---,0.00,VWS V14.01,2013-09-21 06:07:00,
2013-09-21 00:11:00,48.0,23.0,24.54,West,264,0.0,0.0,37,0.00,,---,0.00,VWS V14.01,2013-09-21 06:11:00,
2013-09-21 00:18:00,47.8,23.5,24.54,West,264,0.0,0.0,38,0.00,,---,0.00,VWS V14.01,2013-09-21 06:18:00,
2013-09-21 00:23:00,47.5,23.2,24.54,West,265,0.0,0.0,38,0.00,,---,0.00,VWS V14.01,2013-09-21 06:23:00,
2013-09-21 00:28:00,47.3,23.0,24.54,WSW,255,4.0,4.0,38,0.00,,---,0.00,VWS V14.01,2013-09-21 06:28:00,
2013-09-21 00:33:00,47.3,23.0,24.54,WSW,258,0.0,0.0,38,0.00,,---,0.00,VWS V14.01,2013-09-21 06:33:00,
2013-09-21 00:38:00,47.5,23.2,24.54,West,260,3.1,4.0,38,0.00,,---,0.00,VWS V14.01,2013-09-21 06:38:00,
2013-09-21 00:43:00,47.5,23.2,24.54,SSW,200,2.7,3.6,38,0.00,,---,0.00,VWS V14.01,2013-09-21 06:43:00,
2013-09-21 00:48:00,47.3,23.0,24.54,West,281,2.7,3.6,38,0.00,,---,0.00,VWS V14.01,2013-09-21 06:48:00,
2013-09-21 00:53:00,47.3,23.0,24.54,WNW,292,4.9,4.9,38,0.00,,---,0.00,VWS V14.01,2013-09-21 06:53:00,
2013-09-21 00:58:00,47.1,22.8,24.54,WSW,246,5.4,5.4,38,0.00,,---,0.00,VWS V14.01,2013-09-21 06:58:00,
2013-09-21 01:02:00,47.3,23.0,24.54,WSW,257,3.1,6.3,38,0.00,,---,0.00,VWS V14.01,2013-09-21 07:02:00,
2013-09-21 01:07:00,47.5,23.2,24.54,WSW,246,3.1,5.4,38,0.00,,---,0.00,VWS V14.01,2013-09-21 07:07:00,
2013-09-21 01:12:00,47.8,23.5,24.54,NW,311,5.8,6.3,38,0.00,,---,0.00,VWS V14.01,2013-09-21 07:12:00,
2013-09-21 01:17:00,48.2,23.2,24.54,WSW,257,4.9,7.6,37,0.00,,---,0.00,VWS V14.01,2013-09-21 07:17:00,
2013-09-21 01:22:00,48.2,23.2,24.54,WNW,284,8.1,8.3,37,0.00,,---,0.00,VWS V14.01,2013-09-21 07:22:00,
2013-09-21 01:27:00,47.7,23.3,24.54,WSW,252,6.3,6.3,38,0.00,,---,0.00,VWS V14.01,2013-09-21 07:27:00,
2013-09-21 01:32:00,47.3,23.0,24.54,WNW,290,3.1,4.0,38,0.00,,---,0.00,VWS V14.01,2013-09-21 07:32:00,
2013-09-21 01:37:00,46.9,22.7,24.54,WSW,242,4.0,4.5,38,0.00,,---,0.00,VWS V14.01,2013-09-21 07:37:00,
2013-09-21 01:42:00,46.6,22.4,24.54,WSW,242,0.0,0.0,38,0.00,,---,0.00,VWS V14.01,2013-09-21 07:42:00,
2013-09-21 01:47:00,46.6,22.4,24.54,West,265,2.7,2.7,38,0.00,,---,0.00,VWS V14.01,2013-09-21 07:47:00,
2013-09-21 01:52:00,46.4,22.2,24.54,SW,225,6.3,6.3,38,0.00,,---,0.00,VWS V14.01,2013-09-21 07:52:00,
2013-09-21 01:57:00,46.4,22.2,24.54,WNW,290,2.7,3.1,38,0.00,,---,0.00,VWS V14.01,2013-09-21 07:57:00,
2013-09-21 02:02:00,46.2,22.6,24.54,WNW,293,4.0,4.0,39,0.00,,---,0.00,VWS V14.01,2013-09-21 08:02:00,
2013-09-21 02:07:00,46.0,22.5,24.54,WSW,258,4.0,4.0,39,0.00,,---,0.00,VWS V14.01,2013-09-21 08:07:00,
2013-09-21 02:12:00,46.2,22.6,24.54,WSW,245,4.9,4.9,39,0.00,,---,0.00,VWS V14.01,2013-09-21 08:12:00,
2013-09-21 02:17:00,46.2,22.6,24.51,SW,221,7.6,7.6,39,0.00,,---,0.00,VWS V14.01,2013-09-21 08:17:00,
2013-09-21 02:22:00,46.4,22.8,24.51,SW,227,5.4,8.1,39,0.00,,---,0.00,VWS V14.01,2013-09-21 08:22:00,
2013-09-21 02:27:00,46.2,22.6,24.51,SW,231,5.4,5.4,39,0.00,,---,0.00,VWS V14.01,2013-09-21 08:27:00,
2013-09-21 02:32:00,45.9,22.9,24.54,NW,305,5.8,5.8,40,0.00,,---,0.00,VWS V14.01,2013-09-21 08:32:00,
2013-09-21 02:37:00,45.5,22.6,24.54,West,281,3.6,5.4,40,0.00,,---,0.00,VWS V14.01,2013-09-21 08:37:00,
2013-09-21 02:42:00,45.1,22.3,24.54,SW,234,3.1,3.1,40,0.00,,---,0.00,VWS V14.01,2013-09-21 08:42:00,
2013-09-21 02:47:00,45.0,22.7,24.54,SW,236,5.4,5.4,41,0.00,,---,0.00,VWS V14.01,2013-09-21 08:47:00,
2013-09-21 02:52:00,44.8,22.5,24.54,West,272,5.8,5.8,41,0.00,,---,0.00,VWS V14.01,2013-09-21 08:52:00,
2013-09-21 02:57:00,45.3,23.0,24.54,WNW,289,5.8,5.8,41,0.00,,---,0.00,VWS V14.01,2013-09-21 08:57:00,
2013-09-21 03:02:00,45.3,23.0,24.54,WSW,247,7.2,7.2,41,0.00,,---,0.00,VWS V14.01,2013-09-21 09:02:00,
2013-09-21 03:07:00,45.1,22.9,24.54,SW,235,3.6,4.5,41,0.00,,---,0.00,VWS V14.01,2013-09-21 09:07:00,
2013-09-21 03:12:00,44.8,22.5,24.54,WSW,239,3.1,4.0,41,0.00,,---,0.00,VWS V14.01,2013-09-21 09:12:00,
2013-09-21 03:17:00,44.4,22.8,24.54,SW,232,8.1,8.1,42,0.00,,---,0.00,VWS V14.01,2013-09-21 09:17:00,
2013-09-21 03:22:00,44.6,22.4,24.54,SW,225,6.3,7.6,41,0.00,,---,0.00,VWS V14.01,2013-09-21 09:22:00,
2013-09-21 03:27:00,44.8,22.5,24.54,West,265,4.0,5.8,41,0.00,,---,0.00,VWS V14.01,2013-09-21 09:27:00,
2013-09-21 03:32:00,44.8,22.5,24.54,WSW,249,3.1,5.4,41,0.00,,---,0.00,VWS V14.01,2013-09-21 09:32:00,
2013-09-21 03:37:00,45.0,22.7,24.54,West,262,7.2,8.1,41,0.00,,---,0.00,VWS V14.01,2013-09-21 09:37:00,
2013-09-21 03:42:00,45.0,22.7,24.54,West,273,5.4,5.4,41,0.00,,---,0.00,VWS V14.01,2013-09-21 09:42:00,
2013-09-21 03:47:00,44.6,22.4,24.54,WNW,294,3.6,4.0,41,0.00,,---,0.00,VWS V14.01,2013-09-21 09:47:00,
2013-09-21 03:52:00,44.2,22.6,24.54,West,260,4.0,4.0,42,0.00,,---,0.00,VWS V14.01,2013-09-21 09:52:00,
2013-09-21 03:57:00,44.1,23.0,24.54,WSW,242,5.4,5.4,43,0.00,,---,0.00,VWS V14.01,2013-09-21 09:57:00,
2013-09-21 04:02:00,43.7,22.7,24.54,South,180,3.1,4.0,43,0.00,,---,0.00,VWS V14.01,2013-09-21 10:02:00,
2013-09-21 04:07:00,44.1,23.0,24.54,WSW,247,4.9,5.8,43,0.00,,---,0.00,VWS V14.01,2013-09-21 10:07:00,
2013-09-21 04:12:00,44.2,23.2,24.54,West,271,5.4,6.3,43,0.00,,---,0.00,VWS V14.01,2013-09-21 10:12:00,
2013-09-21 04:17:00,44.2,22.6,24.51,WSW,253,7.6,7.6,42,0.00,,---,0.00,VWS V14.01,2013-09-21 10:17:00,
2013-09-21 04:22:00,44.2,22.6,24.51,West,268,10.1,10.1,42,0.00,,---,0.00,VWS V14.01,2013-09-21 10:22:00,
2013-09-21 04:27:00,44.2,22.6,24.51,WSW,244,3.6,5.8,42,0.00,,---,0.00,VWS V14.01,2013-09-21 10:27:00,
2013-09-21 04:32:00,43.9,22.9,24.51,WNW,303,5.8,5.8,43,0.00,,---,0.00,VWS V14.01,2013-09-21 10:32:00,
2013-09-21 04:37:00,43.7,22.7,24.51,WNW,294,3.1,4.9,43,0.00,,---,0.00,VWS V14.01,2013-09-21 10:37:00,
2013-09-21 04:42:00,43.7,22.7,24.51,WNW,295,3.1,4.5,43,0.00,,---,0.00,VWS V14.01,2013-09-21 10:42:00,
2013-09-21 04:47:00,43.7,22.7,24.51,WSW,254,3.1,4.0,43,0.00,,---,0.00,VWS V14.01,2013-09-21 10:47:00,
2013-09-21 04:52:00,44.2,23.2,24.51,WSW,252,3.1,3.1,43,0.00,,---,0.00,VWS V14.01,2013-09-21 10:52:00,
2013-09-21 04:57:00,44.1,23.0,24.51,West,264,2.7,3.6,43,0.00,,---,0.00,VWS V14.01,2013-09-21 10:57:00,
2013-09-21 05:02:00,43.7,22.7,24.51,WSW,252,4.0,4.0,43,0.00,,---,0.00,VWS V14.01,2013-09-21 11:02:00,
2013-09-21 05:07:00,43.7,22.7,24.51,West,273,5.4,5.8,43,0.00,,---,0.00,VWS V14.01,2013-09-21 11:07:00,
2013-09-21 05:12:00,43.5,22.5,24.51,SW,226,4.9,5.4,43,0.00,,---,0.00,VWS V14.01,2013-09-21 11:12:00,
2013-09-21 05:17:00,43.3,22.9,24.51,West,267,4.9,5.8,44,0.00,,---,0.00,VWS V14.01,2013-09-21 11:17:00,
2013-09-21 05:22:00,43.2,22.7,24.51,WSW,258,6.3,6.3,44,0.00,,---,0.00,VWS V14.01,2013-09-21 11:22:00,
2013-09-21 05:27:00,43.2,22.7,24.51,WSW,239,5.4,5.8,44,0.00,,---,0.00,VWS V14.01,2013-09-21 11:27:00,
2013-09-21 05:32:00,43.0,23.1,24.51,WSW,245,4.9,5.8,45,0.00,,---,0.00,VWS V14.01,2013-09-21 11:32:00,
2013-09-21 05:37:00,42.6,23.3,24.51,SW,227,6.3,6.3,46,0.00,,---,0.00,VWS V14.01,2013-09-21 11:37:00,
2013-09-21 05:42:00,42.6,23.3,24.51,WSW,253,4.0,4.9,46,0.00,,---,0.00,VWS V14.01,2013-09-21 11:42:00,
2013-09-21 05:47:00,42.8,23.0,24.51,West,280,4.9,4.9,45,0.00,,---,0.00,VWS V14.01,2013-09-21 11:47:00,
2013-09-21 05:52:00,42.6,23.3,24.51,WSW,243,4.0,5.8,46,0.00,,---,0.00,VWS V14.01,2013-09-21 11:52:00,
2013-09-21 05:57:00,42.6,23.3,24.51,WSW,241,4.0,5.8,46,0.00,,---,0.00,VWS V14.01,2013-09-21 11:57:00,
2013-09-21 06:02:00,42.4,23.1,24.51,West,263,4.9,5.4,46,0.00,,---,0.00,VWS V14.01,2013-09-21 12:02:00,
2013-09-21 06:07:00,42.3,23.0,24.51,SW,235,5.4,7.6,46,0.00,,---,0.00,VWS V14.01,2013-09-21 12:07:00,
2013-09-21 06:12:00,42.4,23.1,24.51,WSW,258,2.7,3.6,46,0.00,,---,0.00,VWS V14.01,2013-09-21 12:12:00,
2013-09-21 06:17:00,42.4,23.1,24.51,WNW,295,4.0,4.9,46,0.00,,---,0.00,VWS V14.01,2013-09-21 12:17:00,
2013-09-21 06:22:00,42.4,23.1,24.51,WSW,246,3.1,4.5,46,0.00,,---,0.00,VWS V14.01,2013-09-21 12:22:00,
2013-09-21 06:27:00,42.3,23.0,24.51,SW,234,3.6,5.4,46,0.00,,---,0.00,VWS V14.01,2013-09-21 12:27:00,
2013-09-21 06:32:00,41.9,23.2,24.51,WSW,258,5.8,5.8,47,0.00,,---,0.00,VWS V14.01,2013-09-21 12:32:00,
2013-09-21 06:37:00,41.7,23.0,24.51,WSW,240,5.8,5.8,47,0.00,,---,0.00,VWS V14.01,2013-09-21 12:37:00,
2013-09-21 06:42:00,41.5,23.3,24.51,WSW,240,5.4,5.4,48,0.00,,---,0.00,VWS V14.01,2013-09-21 12:42:00,
2013-09-21 06:47:00,41.5,23.3,24.51,West,267,6.3,6.3,48,0.00,,---,0.00,VWS V14.01,2013-09-21 12:47:00,
2013-09-21 06:52:00,41.5,23.3,24.51,SW,231,8.1,8.1,48,0.00,,---,0.00,VWS V14.01,2013-09-21 12:52:00,
2013-09-21 06:57:00,41.9,23.7,24.51,NW,305,5.4,5.4,48,0.00,,---,0.00,VWS V14.01,2013-09-21 12:57:00,
2013-09-21 07:02:00,42.1,23.3,24.51,West,267,5.4,5.4,47,0.00,,---,0.00,VWS V14.01,2013-09-21 13:02:00,
2013-09-21 07:07:00,42.1,23.3,24.51,WSW,247,5.4,5.8,47,0.00,,---,0.00,VWS V14.01,2013-09-21 13:07:00,
2013-09-21 07:12:00,41.7,23.0,24.51,West,265,4.0,6.3,47,0.00,,---,0.00,VWS V14.01,2013-09-21 13:12:00,
2013-09-21 07:17:00,41.5,23.3,24.51,West,269,5.4,5.8,48,0.00,,---,0.00,VWS V14.01,2013-09-21 13:17:00,
2013-09-21 07:22:00,41.4,23.2,24.51,WSW,244,5.4,7.2,48,0.00,,---,0.00,VWS V14.01,2013-09-21 13:22:00,
2013-09-21 07:27:00,41.5,23.3,24.51,WSW,243,6.3,6.3,48,0.00,,---,0.00,VWS V14.01,2013-09-21 13:27:00,
2013-09-21 07:32:00,41.7,23.5,24.51,West,266,7.6,7.6,48,0.00,,---,0.00,VWS V14.01,2013-09-21 13:32:00,
2013-09-21 07:37:00,41.7,23.5,24.51,West,265,5.8,5.8,48,0.00,,---,0.00,VWS V14.01,2013-09-21 13:37:00,
2013-09-21 07:42:00,41.7,23.5,24.51,WSW,250,6.3,6.3,48,0.00,,---,0.00,VWS V14.01,2013-09-21 13:42:00,
2013-09-21 07:47:00,42.1,23.8,24.51,West,274,5.8,5.8,48,0.00,,---,0.00,VWS V14.01,2013-09-21 13:47:00,
2013-09-21 07:52:00,42.3,24.0,24.51,West,261,8.1,8.1,48,0.00,,---,0.00,VWS V14.01,2013-09-21 13:52:00,
2013-09-21 07:57:00,42.4,23.6,24.51,WSW,244,6.3,6.3,47,0.00,,---,0.00,VWS V14.01,2013-09-21 13:57:00,
2013-09-21 08:02:00,43.0,23.6,24.51,West,271,6.3,6.3,46,0.00,,---,0.00,VWS V14.01,2013-09-21 14:02:00,
2013-09-21 08:07:00,43.3,24.0,24.51,West,270,5.4,5.4,46,0.00,,---,0.00,VWS V14.01,2013-09-21 14:07:00,
2013-09-21 08:12:00,43.7,23.2,24.51,West,275,10.1,10.1,44,0.00,,---,0.00,VWS V14.01,2013-09-21 14:12:00,
2013-09-21 08:17:00,44.1,23.6,24.48,WSW,253,7.6,7.6,44,0.00,,---,0.00,VWS V14.01,2013-09-21 14:17:00,
2013-09-21 08:22:00,44.1,23.6,24.48,West,279,5.4,5.4,44,0.00,,---,0.00,VWS V14.01,2013-09-21 14:22:00,
2013-09-21 08:27:00,44.4,23.3,24.48,West,275,4.0,4.0,43,0.00,,---,0.00,VWS V14.01,2013-09-21 14:27:00,
2013-09-21 08:32:00,44.8,23.7,24.48,West,275,6.3,7.6,43,0.00,,---,0.00,VWS V14.01,2013-09-21 14:32:00,
2013-09-21 08:37:00,45.0,23.8,24.48,WSW,251,7.6,7.6,43,0.00,,---,0.00,VWS V14.01,2013-09-21 14:37:00,
2013-09-21 08:42:00,45.3,23.6,24.48,West,270,4.9,8.1,42,0.00,,---,0.00,VWS V14.01,2013-09-21 14:42:00,
2013-09-21 08:47:00,45.9,24.1,24.51,West,267,7.6,7.6,42,0.00,,---,0.00,VWS V14.01,2013-09-21 14:47:00,
2013-09-21 08:52:00,46.2,23.8,24.51,West,273,5.8,7.6,41,0.00,,---,0.00,VWS V14.01,2013-09-21 14:52:00,
2013-09-21 08:57:00,46.8,23.7,24.51,WSW,245,4.0,4.0,40,0.00,,---,0.00,VWS V14.01,2013-09-21 14:57:00,
2013-09-21 09:02:00,47.1,24.1,24.48,WSW,249,5.8,5.8,40,0.00,,---,0.00,VWS V14.01,2013-09-21 15:02:00,
2013-09-21 09:07:00,48.0,24.9,24.48,WSW,247,5.8,7.6,40,0.00,,---,0.00,VWS V14.01,2013-09-21 15:07:00,
2013-09-21 09:12:00,48.7,24.9,24.48,SW,233,5.4,6.3,39,0.00,,---,0.00,VWS V14.01,2013-09-21 15:12:00,
2013-09-21 09:17:00,50.0,26.0,24.48,West,264,3.6,5.8,39,0.00,,---,0.00,VWS V14.01,2013-09-21 15:17:00,
2013-09-21 09:22:00,51.1,26.4,24.48,West,267,5.8,5.8,38,0.00,,---,0.00,VWS V14.01,2013-09-21 15:22:00,
2013-09-21 09:27:00,52.0,26.5,24.48,WNW,303,4.9,7.2,37,0.00,,---,0.00,VWS V14.01,2013-09-21 15:27:00,
2013-09-21 09:32:00,52.9,27.3,24.48,West,266,5.4,5.8,37,0.00,,---,0.00,VWS V14.01,2013-09-21 15:32:00,
2013-09-21 09:37:00,53.8,28.1,24.48,WNW,297,3.1,6.3,37,0.00,,---,0.00,VWS V14.01,2013-09-21 15:37:00,
2013-09-21 09:42:00,54.5,28.8,24.48,West,269,7.2,8.7,37,0.00,,---,0.00,VWS V14.01,2013-09-21 15:42:00,
2013-09-21 09:47:00,55.0,28.6,24.48,WSW,240,3.6,3.6,36,0.00,,---,0.00,VWS V14.01,2013-09-21 15:47:00,
2013-09-21 09:52:00,56.1,29.5,24.48,SW,218,3.1,4.9,36,0.00,,---,0.00,VWS V14.01,2013-09-21 15:52:00,
2013-09-21 09:57:00,57.0,29.7,24.48,West,276,6.3,6.3,35,0.00,,---,0.00,VWS V14.01,2013-09-21 15:57:00,
2013-09-21 10:02:00,57.6,29.4,24.48,WNW,287,4.0,6.3,34,0.00,,---,0.00,VWS V14.01,2013-09-21 16:02:00,
2013-09-21 10:07:00,58.3,30.1,24.48,NW,308,2.2,3.6,34,0.00,,---,0.00,VWS V14.01,2013-09-21 16:07:00,
2013-09-21 10:12:00,59.2,30.1,24.48,WNW,303,2.7,4.0,33,0.00,,---,0.00,VWS V14.01,2013-09-21 16:12:00,
2013-09-21 10:17:00,60.3,30.3,24.48,WSW,249,2.7,4.5,32,0.00,,---,0.00,VWS V14.01,2013-09-21 16:17:00,
2013-09-21 10:22:00,64.6,29.9,24.48,South,170,5.8,11.0,27,0.00,,---,0.00,VWS V14.01,2013-09-21 16:22:00,
2013-09-21 10:27:00,66.9,30.0,24.48,ESE,103,8.1,8.1,25,0.00,,---,0.00,VWS V14.01,2013-09-21 16:27:00,
2013-09-21 10:32:00,68.0,29.9,24.48,South,173,5.4,5.4,24,0.00,,---,0.00,VWS V14.01,2013-09-21 16:32:00,
2013-09-21 10:37:00,68.2,29.0,24.48,South,175,3.6,3.6,23,0.00,,---,0.00,VWS V14.01,2013-09-21 16:37:00,
2013-09-21 10:42:00,68.4,29.1,24.48,SSE,152,15.4,15.4,23,0.00,,---,0.00,VWS V14.01,2013-09-21 16:42:00,
2013-09-21 10:47:00,68.9,29.6,24.48,South,180,10.5,11.0,23,0.00,,---,0.00,VWS V14.01,2013-09-21 16:47:00,
2013-09-21 10:52:00,68.7,29.5,24.48,East,91,4.0,11.0,23,0.00,,---,0.00,VWS V14.01,2013-09-21 16:52:00,
2013-09-21 10:57:00,68.0,28.9,24.48,SSE,150,5.8,13.2,23,0.00,,---,0.00,VWS V14.01,2013-09-21 16:57:00,
2013-09-21 11:02:00,67.8,28.7,24.48,SSE,154,8.1,10.5,23,0.00,,---,0.00,VWS V14.01,2013-09-21 17:02:00,
2013-09-21 11:07:00,67.8,29.7,24.48,SE,142,8.3,8.7,24,0.00,,---,0.00,VWS V14.01,2013-09-21 17:07:00,
2013-09-21 11:12:00,67.8,29.7,24.48,SSE,165,11.0,11.0,24,0.00,,---,0.00,VWS V14.01,2013-09-21 17:12:00,
2013-09-21 11:17:00,68.0,28.9,24.48,SE,145,8.7,11.9,23,0.00,,---,0.00,VWS V14.01,2013-09-21 17:17:00,
2013-09-21 11:22:00,68.4,29.1,24.48,SE,139,11.0,13.6,23,0.00,,---,0.00,VWS V14.01,2013-09-21 17:22:00,
2013-09-21 11:27:00,69.1,29.8,24.48,SSW,211,4.0,5.4,23,0.00,,---,0.00,VWS V14.01,2013-09-21 17:27:00,
2013-09-21 11:32:00,69.3,29.9,24.48,ESE,112,9.6,11.0,23,0.00,,---,0.00,VWS V14.01,2013-09-21 17:32:00,
2013-09-21 11:37:00,69.4,30.1,24.48,SE,140,5.8,11.9,23,0.00,,---,0.00,VWS V14.01,2013-09-21 17:37:00,
2013-09-21 11:42:00,68.7,29.5,24.48,SSE,152,10.5,10.5,23,0.00,,---,0.00,VWS V14.01,2013-09-21 17:42:00,
2013-09-21 11:47:00,68.9,29.6,24.48,SSE,147,13.2,15.9,23,0.00,,---,0.00,VWS V14.01,2013-09-21 17:47:00,
2013-09-21 11:52:00,69.6,30.2,24.48,SSE,151,11.0,11.0,23,0.00,,---,0.00,VWS V14.01,2013-09-21 17:52:00,
2013-09-21 11:57:00,69.6,30.2,24.48,SE,126,5.8,10.5,23,0.00,,---,0.00,VWS V14.01,2013-09-21 17:57:00,
2013-09-21 12:02:00,68.9,29.6,24.48,ESE,123,8.7,12.8,23,0.00,,---,0.00,VWS V14.01,2013-09-21 18:02:00,
2013-09-21 12:07:00,68.7,29.5,24.48,ESE,119,10.1,11.0,23,0.00,,---,0.00,VWS V14.01,2013-09-21 18:07:00,
2013-09-21 12:12:00,69.4,29.0,24.48,SSW,208,2.2,8.7,22,0.00,,---,0.00,VWS V14.01,2013-09-21 18:12:00,
2013-09-21 12:17:00,70.3,30.8,24.45,WNW,284,2.7,4.9,23,0.00,,---,0.00,VWS V14.01,2013-09-21 18:17:00,
2013-09-21 12:22:00,70.9,30.2,24.45,South,170,5.8,8.3,22,0.00,,---,0.00,VWS V14.01,2013-09-21 18:22:00,
2013-09-21 12:27:00,71.2,30.5,24.45,East,99,5.8,6.3,22,0.00,,---,0.00,VWS V14.01,2013-09-21 18:27:00,
2013-09-21 12:32:00,70.7,30.0,24.45,SSE,156,8.1,10.1,22,0.00,,---,0.00,VWS V14.01,2013-09-21 18:32:00,
2013-09-21 12:37:00,70.7,30.0,24.45,SSW,196,4.9,15.4,22,0.00,,---,0.00,VWS V14.01,2013-09-21 18:37:00,
2013-09-21 12:42:00,71.1,30.3,24.45,SSE,156,5.4,12.3,22,0.00,,---,0.00,VWS V14.01,2013-09-21 18:42:00,
2013-09-21 12:47:00,71.2,30.5,24.45,SW,226,5.8,8.7,22,0.00,,---,0.00,VWS V14.01,2013-09-21 18:47:00,
2013-09-21 12:52:00,71.8,29.8,24.45,SW,225,7.6,8.7,21,0.00,,---,0.00,VWS V14.01,2013-09-21 18:52:00,
2013-09-21 12:57:00,72.0,27.5,24.45,SSE,164,3.1,11.0,19,0.00,,---,0.00,VWS V14.01,2013-09-21 18:57:00,
2013-09-21 13:02:00,72.0,27.5,24.45,SSW,208,3.6,8.1,19,0.00,,---,0.00,VWS V14.01,2013-09-21 19:02:00,
2013-09-21 13:07:00,72.1,27.6,24.45,SSW,200,5.8,5.8,19,0.00,,---,0.00,VWS V14.01,2013-09-21 19:07:00,
2013-09-21 13:12:00,72.5,23.8,24.45,SE,143,10.5,10.5,16,0.00,,---,0.00,VWS V14.01,2013-09-21 19:12:00,
2013-09-21 13:17:00,72.5,23.8,24.45,SW,219,5.4,13.2,16,0.00,,---,0.00,VWS V14.01,2013-09-21 19:17:00,
2013-09-21 13:22:00,72.7,23.9,24.45,West,269,3.6,6.3,16,0.00,,---,0.00,VWS V14.01,2013-09-21 19:22:00,
2013-09-21 13:27:00,72.7,23.9,24.45,WSW,253,8.7,11.0,16,0.00,,---,0.00,VWS V14.01,2013-09-21 19:27:00,
2013-09-21 13:32:00,72.9,24.1,24.45,SW,228,7.6,10.5,16,0.00,,---,0.00,VWS V14.01,2013-09-21 19:32:00,
2013-09-21 13:37:00,72.9,24.1,24.45,WNW,291,7.6,8.1,16,0.00,,---,0.00,VWS V14.01,2013-09-21 19:37:00,
2013-09-21 13:42:00,72.9,24.1,24.45,SW,218,3.6,4.0,16,0.00,,---,0.00,VWS V14.01,2013-09-21 19:42:00,
2013-09-21 13:47:00,73.0,24.2,24.45,West,265,6.3,12.3,16,0.00,,---,0.00,VWS V14.01,2013-09-21 19:47:00,
2013-09-21 13:52:00,72.9,24.1,24.45,WSW,257,8.1,15.4,16,0.00,,---,0.00,VWS V14.01,2013-09-21 19:52:00,
2013-09-21 13:57:00,73.0,24.2,24.45,SW,234,7.6,7.6,16,0.00,,---,0.00,VWS V14.01,2013-09-21 19:57:00,
2013-09-21 14:02:00,73.0,24.2,24.42,South,183,4.0,5.4,16,0.00,,---,0.00,VWS V14.01,2013-09-21 20:02:00,
2013-09-21 14:07:00,73.4,24.5,24.42,SSW,213,8.7,8.7,16,0.00,,---,0.00,VWS V14.01,2013-09-21 20:07:00,
2013-09-21 14:12:00,73.4,24.5,24.42,SW,219,6.3,8.3,16,0.00,,---,0.00,VWS V14.01,2013-09-21 20:12:00,
2013-09-21 14:17:00,73.6,24.7,24.42,West,264,8.3,8.3,16,0.00,,---,0.00,VWS V14.01,2013-09-21 20:17:00,
2013-09-21 14:22:00,73.4,24.5,24.42,SW,235,3.6,5.4,16,0.00,,---,0.00,VWS V14.01,2013-09-21 20:22:00,
2013-09-21 14:27:00,73.4,24.5,24.42,West,280,4.0,6.3,16,0.00,,---,0.00,VWS V14.01,2013-09-21 20:27:00,
2013-09-21 14:31:00,73.8,24.8,24.42,South,176,6.3,6.3,16,0.00,,---,0.00,VWS V14.01,2013-09-21 20:31:00,
2013-09-21 14:36:00,74.1,25.1,24.42,SE,136,4.0,4.9,16,0.00,,---,0.00,VWS V14.01,2013-09-21 20:36:00,
2013-09-21 14:41:00,74.5,25.4,24.42,SW,232,4.0,5.4,16,0.00,,---,0.00,VWS V14.01,2013-09-21 20:41:00,
2013-09-21 14:46:00,74.3,25.2,24.42,WSW,241,4.0,4.0,16,0.00,,---,0.00,VWS V14.01,2013-09-21 20:46:00,
2013-09-21 14:51:00,73.6,24.7,24.42,SE,142,7.6,10.1,16,0.00,,---,0.00,VWS V14.01,2013-09-21 20:51:00,
2013-09-21 14:56:00,73.6,24.7,24.42,WSW,238,9.6,9.6,16,0.00,,---,0.00,VWS V14.01,2013-09-21 20:56:00,
2013-09-21 15:01:00,73.2,24.4,24.42,SW,235,5.4,8.7,16,0.00,,---,0.00,VWS V14.01,2013-09-21 21:01:00,
2013-09-21 15:06:00,73.0,24.2,24.42,South,190,6.3,6.3,16,0.00,,---,0.00,VWS V14.01,2013-09-21 21:06:00,
2013-09-21 15:11:00,73.2,24.4,24.42,SSW,202,5.4,8.1,16,0.00,,---,0.00,VWS V14.01,2013-09-21 21:11:00,
2013-09-21 15:16:00,73.2,24.4,24.42,SSE,159,3.6,8.1,16,0.00,,---,0.00,VWS V14.01,2013-09-21 21:16:00,
2013-09-21 15:21:00,73.6,24.7,24.42,WSW,241,5.4,6.3,16,0.00,,---,0.00,VWS V14.01,2013-09-21 21:21:00,
2013-09-21 15:26:00,73.4,24.5,24.42,West,276,2.7,6.3,16,0.00,,---,0.00,VWS V14.01,2013-09-21 21:26:00,
2013-09-21 15:31:00,72.9,24.1,24.39,NW,321,5.4,5.8,16,0.00,,---,0.00,VWS V14.01,2013-09-21 21:31:00,
2013-09-21 15:36:00,72.7,23.9,24.39,WSW,254,5.4,6.3,16,0.00,,---,0.00,VWS V14.01,2013-09-21 21:36:00,
2013-09-21 15:41:00,72.9,24.1,24.39,NE,52,3.1,9.6,16,0.00,,---,0.00,VWS V14.01,2013-09-21 21:41:00,
2013-09-21 15:46:00,72.9,24.1,24.39,WSW,242,5.4,5.8,16,0.00,,---,0.00,VWS V14.01,2013-09-21 21:46:00,
2013-09-21 15:51:00,72.7,23.9,24.39,SSW,212,2.2,4.9,16,0.00,,---,0.00,VWS V14.01,2013-09-21 21:51:00,
2013-09-21 15:56:00,72.7,23.9,24.39,WSW,242,2.2,2.2,16,0.00,,---,0.00,VWS V14.01,2013-09-21 21:56:00,
2013-09-21 16:01:00,72.9,24.1,24.39,West,268,6.3,6.3,16,0.00,,---,0.00,VWS V14.01,2013-09-21 22:01:00,
2013-09-21 16:06:00,72.3,23.6,24.39,WSW,245,8.3,10.5,16,0.00,,---,0.00,VWS V14.01,2013-09-21 22:06:00,
2013-09-21 16:11:00,72.1,23.5,24.39,SW,220,3.6,3.6,16,0.00,,---,0.00,VWS V14.01,2013-09-21 22:11:00,
2013-09-21 16:16:00,72.0,23.4,24.39,WSW,256,4.9,6.3,16,0.00,,---,0.00,VWS V14.01,2013-09-21 22:16:00,
2013-09-21 16:21:00,72.1,23.5,24.39,SW,221,10.1,10.1,16,0.00,,---,0.00,VWS V14.01,2013-09-21 22:21:00,
2013-09-21 16:26:00,72.1,23.5,24.39,West,270,8.1,11.0,16,0.00,,---,0.00,VWS V14.01,2013-09-21 22:26:00,
2013-09-21 16:31:00,72.3,23.6,24.39,SW,232,5.8,5.8,16,0.00,,---,0.00,VWS V14.01,2013-09-21 22:31:00,
2013-09-21 16:36:00,72.3,23.6,24.39,SW,228,5.8,6.3,16,0.00,,---,0.00,VWS V14.01,2013-09-21 22:36:00,
2013-09-21 16:41:00,72.1,23.5,24.39,WSW,238,5.8,5.8,16,0.00,,---,0.00,VWS V14.01,2013-09-21 22:41:00,
2013-09-21 16:46:00,72.1,23.5,24.39,SW,230,2.2,4.0,16,0.00,,---,0.00,VWS V14.01,2013-09-21 22:46:00,
2013-09-21 16:51:00,72.3,23.6,24.39,SW,230,0.0,0.0,16,0.00,,---,0.00,VWS V14.01,2013-09-21 22:51:00,
2013-09-21 16:56:00,72.7,23.9,24.39,SSE,150,4.0,4.0,16,0.00,,---,0.00,VWS V14.01,2013-09-21 22:56:00,
2013-09-21 17:01:00,72.9,24.1,24.39,SSE,149,0.0,0.0,16,0.00,,---,0.00,VWS V14.01,2013-09-21 23:01:00,
2013-09-21 17:06:00,72.5,23.8,24.39,West,263,3.1,3.6,16,0.00,,---,0.00,VWS V14.01,2013-09-21 23:06:00,
2013-09-21 17:11:00,72.1,23.5,24.39,NW,316,4.9,4.9,16,0.00,,---,0.00,VWS V14.01,2013-09-21 23:11:00,
2013-09-21 17:16:00,71.6,23.1,24.39,NW,318,2.7,2.7,16,0.00,,---,0.00,VWS V14.01,2013-09-21 23:16:00,
2013-09-21 17:21:00,71.6,23.1,24.39,SW,224,3.6,3.6,16,0.00,,---,0.00,VWS V14.01,2013-09-21 23:21:00,
2013-09-21 17:26:00,71.4,24.4,24.39,WSW,255,3.6,3.6,17,0.00,,---,0.00,VWS V14.01,2013-09-21 23:26:00,
2013-09-21 17:31:00,71.2,24.2,24.39,West,265,3.6,3.6,17,0.00,,---,0.00,VWS V14.01,2013-09-21 23:31:00,
2013-09-21 17:36:00,71.2,24.2,24.39,NW,313,0.0,0.0,17,0.00,,---,0.00,VWS V14.01,2013-09-21 23:36:00,
2013-09-21 17:41:00,71.1,26.8,24.39,WNW,302,2.7,3.1,19,0.00,,---,0.00,VWS V14.01,2013-09-21 23:41:00,
2013-09-21 17:46:00,70.9,26.6,24.39,West,266,0.0,0.0,19,0.00,,---,0.00,VWS V14.01,2013-09-21 23:46:00,
2013-09-21 17:51:00,70.5,26.3,24.39,NE,46,5.8,5.8,19,0.00,,---,0.00,VWS V14.01,2013-09-21 23:51:00,
2013-09-21 17:56:00,69.3,28.8,24.39,NE,51,6.3,6.3,22,0.00,,---,0.00,VWS V14.01,2013-09-21 23:56:00,
2013-09-21 18:01:00,67.8,28.7,24.39,North,2,2.2,4.5,23,0.00,,---,0.00,VWS V14.01,2013-09-22 00:01:00,
2013-09-21 18:06:00,66.7,27.8,24.39,NE,40,2.7,4.9,23,0.00,,---,0.00,VWS V14.01,2013-09-22 00:06:00,
2013-09-21 18:11:00,66.0,27.2,24.39,North,357,2.7,3.6,23,0.00,,---,0.00,VWS V14.01,2013-09-22 00:11:00,
2013-09-21 18:16:00,65.7,27.9,24.39,ENE,64,3.1,4.5,24,0.00,,---,0.00,VWS V14.01,2013-09-22 00:16:00,
2013-09-21 18:21:00,65.1,27.5,24.39,East,87,3.1,3.1,24,0.00,,---,0.00,VWS V14.01,2013-09-22 00:21:00,
2013-09-21 18:26:00,64.4,26.9,24.39,SE,139,4.9,5.4,24,0.00,,---,0.00,VWS V14.01,2013-09-22 00:26:00,
2013-09-21 18:31:00,63.9,27.4,24.39,ESE,121,5.4,6.3,25,0.00,,---,0.00,VWS V14.01,2013-09-22 00:31:00,
2013-09-21 18:36:00,63.5,27.1,24.39,SE,130,3.1,3.6,25,0.00,,---,0.00,VWS V14.01,2013-09-22 00:36:00,
2013-09-21 18:41:00,63.5,27.1,24.39,SE,145,5.4,5.4,25,0.00,,---,0.00,VWS V14.01,2013-09-22 00:41:00,
2013-09-21 18:46:00,63.3,26.9,24.42,SE,138,4.0,5.4,25,0.00,,---,0.00,VWS V14.01,2013-09-22 00:46:00,
2013-09-21 18:51:00,63.3,26.9,24.42,East,98,6.3,6.3,25,0.00,,---,0.00,VWS V14.01,2013-09-22 00:51:00,
2013-09-21 18:56:00,63.3,27.9,24.42,ENE,57,4.0,5.4,26,0.00,,---,0.00,VWS V14.01,2013-09-22 00:56:00,
2013-09-21 19:01:00,63.1,27.7,24.42,East,99,6.3,6.3,26,0.00,,---,0.00,VWS V14.01,2013-09-22 01:01:00,
2013-09-21 19:06:00,63.1,27.7,24.42,SSW,197,0.0,0.0,26,0.00,,---,0.00,VWS V14.01,2013-09-22 01:06:00,
2013-09-21 19:11:00,63.0,27.6,24.42,SSW,197,2.7,3.6,26,0.00,,---,0.00,VWS V14.01,2013-09-22 01:11:00,
2013-09-21 19:16:00,62.8,27.4,24.42,ESE,117,5.8,5.8,26,0.00,,---,0.00,VWS V14.01,2013-09-22 01:16:00,
2013-09-21 19:21:00,62.8,27.4,24.42,SE,131,6.3,8.1,26,0.00,,---,0.00,VWS V14.01,2013-09-22 01:21:00,
2013-09-21 19:26:00,62.8,27.4,24.42,SE,142,5.8,8.7,26,0.00,,---,0.00,VWS V14.01,2013-09-22 01:26:00,
2013-09-21 19:31:00,62.8,27.4,24.42,ESE,112,5.8,7.6,26,0.00,,---,0.00,VWS V14.01,2013-09-22 01:31:00,
2013-09-21 19:36:00,62.6,27.3,24.42,SE,146,5.4,5.8,26,0.00,,---,0.00,VWS V14.01,2013-09-22 01:36:00,
2013-09-21 19:41:00,62.2,27.0,24.42,SE,127,5.4,5.4,26,0.00,,---,0.00,VWS V14.01,2013-09-22 01:41:00,
2013-09-21 19:46:00,62.2,27.9,24.42,ESE,109,3.6,5.8,27,0.00,,---,0.00,VWS V14.01,2013-09-22 01:46:00,
2013-09-21 19:51:00,62.2,27.9,24.42,ESE,103,4.9,4.9,27,0.00,,---,0.00,VWS V14.01,2013-09-22 01:51:00,
2013-09-21 19:56:00,62.1,27.7,24.42,ESE,113,5.8,8.3,27,0.00,,---,0.00,VWS V14.01,2013-09-22 01:56:00,
2013-09-21 20:01:00,62.1,27.7,24.42,ESE,116,4.0,4.9,27,0.00,,---,0.00,VWS V14.01,2013-09-22 02:01:00,
2013-09-21 20:06:00,61.9,27.6,24.42,SE,133,5.8,6.3,27,0.00,,---,0.00,VWS V14.01,2013-09-22 02:06:00,
2013-09-21 20:11:00,61.7,27.4,24.42,East,89,4.9,8.1,27,0.00,,---,0.00,VWS V14.01,2013-09-22 02:11:00,
2013-09-21 20:16:00,61.3,27.1,24.42,SE,138,3.1,3.6,27,0.00,,---,0.00,VWS V14.01,2013-09-22 02:16:00,
2013-09-21 20:21:00,61.0,26.8,24.42,ESE,109,5.4,9.2,27,0.00,,---,0.00,VWS V14.01,2013-09-22 02:21:00,
2013-09-21 20:26:00,60.8,27.5,24.42,SE,126,7.6,7.6,28,0.00,,---,0.00,VWS V14.01,2013-09-22 02:26:00,
2013-09-21 20:31:00,60.6,27.4,24.42,SE,130,5.4,5.4,28,0.00,,---,0.00,VWS V14.01,2013-09-22 02:31:00,
2013-09-21 20:36:00,60.4,27.2,24.42,ESE,112,6.3,6.3,28,0.00,,---,0.00,VWS V14.01,2013-09-22 02:36:00,
2013-09-21 20:41:00,60.4,28.1,24.42,ESE,116,2.2,3.1,29,0.00,,---,0.00,VWS V14.01,2013-09-22 02:41:00,
2013-09-21 20:46:00,60.3,27.9,24.42,SE,128,3.6,3.6,29,0.00,,---,0.00,VWS V14.01,2013-09-22 02:46:00,
2013-09-21 20:51:00,60.3,27.9,24.42,ENE,70,3.6,3.6,29,0.00,,---,0.00,VWS V14.01,2013-09-22 02:51:00,
2013-09-21 20:56:00,60.1,27.7,24.42,ESE,122,0.0,2.7,29,0.00,,---,0.00,VWS V14.01,2013-09-22 02:56:00,
2013-09-21 21:01:00,59.7,28.3,24.42,ESE,114,6.3,8.1,30,0.00,,---,0.00,VWS V14.01,2013-09-22 03:01:00,
2013-09-21 21:06:00,59.7,28.3,24.42,East,92,3.1,3.1,30,0.00,,---,0.00,VWS V14.01,2013-09-22 03:06:00,
2013-09-21 21:11:00,59.5,28.1,24.42,ESE,122,0.0,0.0,30,0.00,,---,0.00,VWS V14.01,2013-09-22 03:11:00,
2013-09-21 21:16:00,59.4,27.9,24.42,ESE,122,0.0,0.0,30,0.00,,---,0.00,VWS V14.01,2013-09-22 03:16:00,
2013-09-21 21:21:00,59.4,27.9,24.42,ESE,122,0.0,0.0,30,0.00,,---,0.00,VWS V14.01,2013-09-22 03:21:00,
2013-09-21 21:26:00,59.2,28.6,24.42,ENE,75,5.4,5.4,31,0.00,,---,0.00,VWS V14.01,2013-09-22 03:26:00,
2013-09-21 21:31:00,59.0,28.4,24.45,ESE,112,4.0,4.0,31,0.00,,---,0.00,VWS V14.01,2013-09-22 03:31:00,
2013-09-21 21:36:00,59.0,28.4,24.45,ESE,104,4.9,4.9,31,0.00,,---,0.00,VWS V14.01,2013-09-22 03:36:00,
2013-09-21 21:41:00,58.8,29.0,24.45,NE,51,0.0,0.0,32,0.00,,---,0.00,VWS V14.01,2013-09-22 03:41:00,
2013-09-21 21:46:00,58.8,29.0,24.45,ESE,123,2.7,4.9,32,0.00,,---,0.00,VWS V14.01,2013-09-22 03:46:00,
2013-09-21 21:51:00,58.6,29.6,24.45,SE,128,4.0,4.0,33,0.00,,---,0.00,VWS V14.01,2013-09-22 03:51:00,
2013-09-21 21:56:00,58.6,29.6,24.45,SE,142,5.4,5.8,33,0.00,,---,0.00,VWS V14.01,2013-09-22 03:56:00,
2013-09-21 22:01:00,58.5,29.5,24.45,ESE,114,2.7,3.6,33,0.00,,---,0.00,VWS V14.01,2013-09-22 04:01:00,
2013-09-21 22:06:00,58.5,30.2,24.45,ESE,123,4.9,4.9,34,0.00,,---,0.00,VWS V14.01,2013-09-22 04:06:00,
2013-09-21 22:11:00,58.1,30.6,24.45,East,87,2.7,2.7,35,0.00,,---,0.00,VWS V14.01,2013-09-22 04:11:00,
2013-09-21 22:16:00,58.1,30.6,24.45,East,87,0.0,0.0,35,0.00,,---,0.00,VWS V14.01,2013-09-22 04:16:00,
2013-09-21 22:21:00,57.9,30.5,24.45,East,87,0.0,0.0,35,0.00,,---,0.00,VWS V14.01,2013-09-22 04:21:00,
2013-09-21 22:26:00,57.7,30.3,24.45,SE,136,3.6,3.6,35,0.00,,---,0.00,VWS V14.01,2013-09-22 04:26:00,
2013-09-21 22:31:00,57.6,30.1,24.45,ENE,77,3.6,3.6,35,0.00,,---,0.00,VWS V14.01,2013-09-22 04:31:00,
2013-09-21 22:36:00,57.4,30.0,24.45,ESE,107,0.0,0.0,35,0.00,,---,0.00,VWS V14.01,2013-09-22 04:36:00,
2013-09-21 22:41:00,57.4,30.7,24.45,ESE,108,0.0,0.0,36,0.00,,---,0.00,VWS V14.01,2013-09-22 04:41:00,
2013-09-21 22:46:00,57.2,30.5,24.45,ESE,108,0.0,0.0,36,0.00,,---,0.00,VWS V14.01,2013-09-22 04:46:00,
2013-09-21 22:51:00,56.8,30.2,24.45,ESE,108,0.0,0.0,36,0.00,,---,0.00,VWS V14.01,2013-09-22 04:51:00,
2013-09-21 22:56:00,56.7,30.7,24.45,ESE,108,0.0,0.0,37,0.00,,---,0.00,VWS V14.01,2013-09-22 04:56:00,
2013-09-21 23:01:00,56.5,30.5,24.45,ESE,111,0.0,0.0,37,0.00,,---,0.00,VWS V14.01,2013-09-22 05:01:00,
2013-09-21 23:06:00,56.3,30.4,24.45,ESE,110,0.0,0.0,37,0.00,,---,0.00,VWS V14.01,2013-09-22 05:06:00,
2013-09-21 23:11:00,55.9,30.1,24.45,ESE,111,0.0,0.0,37,0.00,,---,0.00,VWS V14.01,2013-09-22 05:11:00,
2013-09-21 23:16:00,55.6,30.4,24.42,ESE,110,0.0,0.0,38,0.00,,---,0.00,VWS V14.01,2013-09-22 05:16:00,
2013-09-21 23:21:00,55.4,30.2,24.42,ESE,111,0.0,0.0,38,0.00,,---,0.00,VWS V14.01,2013-09-22 05:21:00,
2013-09-21 23:26:00,55.4,30.2,24.42,ESE,111,0.0,0.0,38,0.00,,---,0.00,VWS V14.01,2013-09-22 05:26:00,
2013-09-21 23:31:00,55.2,30.1,24.42,WSW,250,0.0,0.0,38,0.00,,---,0.00,VWS V14.01,2013-09-22 05:31:00,
2013-09-21 23:36:00,55.0,30.5,24.42,WSW,249,4.0,4.0,39,0.00,,---,0.00,VWS V14.01,2013-09-22 05:36:00,
2013-09-21 23:41:00,54.9,30.4,24.42,WSW,244,0.0,0.0,39,0.00,,---,0.00,VWS V14.01,2013-09-22 05:41:00,
2013-09-21 23:46:00,54.7,30.9,24.42,WSW,244,0.0,0.0,40,0.00,,---,0.00,VWS V14.01,2013-09-22 05:46:00,
2013-09-21 23:51:00,54.7,30.9,24.42,WSW,244,0.0,0.0,40,0.00,,---,0.00,VWS V14.01,2013-09-22 05:51:00,
2013-09-21 23:56:00,54.5,31.3,24.42,WSW,244,0.0,0.0,41,0.00,,---,0.00,VWS V14.01,2013-09-22 05:56:00,